createdAt,value
2023-05-08T00:01:27.280Z,16.67
2023-05-08T00:03:57.313Z,16.62
2023-05-08T00:06:27.691Z,16.71
2023-05-08T00:08:57.730Z,16.67
2023-05-08T00:11:27.755Z,16.69
2023-05-08T00:14:00.328Z,16.52
2023-05-08T00:16:30.343Z,16.64
2023-05-08T00:19:00.772Z,16.78
2023-05-08T00:21:31.359Z,16.69
2023-05-08T00:24:01.389Z,16.74
2023-05-08T00:26:31.456Z,16.74
2023-05-08T00:29:06.013Z,16.60
2023-05-08T00:31:36.593Z,16.40
2023-05-08T00:34:06.638Z,16.34
2023-05-08T00:36:36.645Z,16.69
2023-05-08T00:39:06.964Z,16.74
2023-05-08T00:41:36.893Z,16.74
2023-05-08T00:44:09.489Z,16.62
2023-05-08T00:46:39.938Z,16.70
2023-05-08T00:49:14.638Z,16.76
2023-05-08T00:51:45.963Z,16.65
2023-05-08T00:54:16.745Z,16.74
2023-05-08T00:56:48.723Z,16.76
2023-05-08T00:59:24.218Z,16.86
2023-05-08T01:01:55.825Z,16.81
2023-05-08T01:04:29.564Z,16.76
2023-05-08T01:06:59.552Z,16.77
2023-05-08T01:09:29.478Z,16.82
2023-05-08T01:12:18.933Z,16.78
2023-05-08T01:15:03.693Z,16.70
2023-05-08T01:17:50.782Z,16.77
2023-05-08T01:20:38.753Z,16.80
2023-05-08T01:23:47.347Z,16.74
2023-05-08T01:26:45.095Z,16.51
2023-05-08T01:30:02.856Z,16.60
2023-05-08T01:32:42.109Z,16.58
2023-05-08T01:35:23.304Z,16.64
2023-05-08T01:38:00.958Z,16.71
2023-05-08T01:40:40.236Z,16.75
2023-05-08T01:43:21.660Z,16.67
2023-05-08T01:45:55.951Z,16.65
2023-05-08T01:48:33.994Z,16.66
2023-05-08T01:51:10.919Z,16.59
2023-05-08T01:53:45.716Z,16.46
2023-05-08T01:56:22.283Z,16.54
2023-05-08T01:58:55.836Z,16.55
2023-05-08T02:01:29.563Z,16.65
2023-05-08T02:04:04.055Z,16.65
2023-05-08T02:06:36.247Z,16.62
2023-05-08T02:09:06.233Z,16.44
2023-05-08T02:11:40.286Z,16.51
2023-05-08T02:14:12.189Z,16.49
2023-05-08T02:16:44.958Z,16.52
2023-05-08T02:19:20.044Z,16.57
2023-05-08T02:21:53.575Z,16.41
2023-05-08T02:24:25.234Z,16.33
2023-05-08T02:26:58.832Z,16.44
2023-05-08T02:29:31.850Z,16.56
2023-05-08T02:32:06.488Z,16.58
2023-05-08T02:34:45.224Z,16.50
2023-05-08T02:37:24.751Z,16.42
2023-05-08T02:40:00.353Z,16.47
2023-05-08T02:42:30.679Z,16.41
2023-05-08T02:45:00.777Z,16.50
2023-05-08T02:47:40.945Z,16.45
2023-05-08T02:50:21.326Z,16.48
2023-05-08T02:52:55.370Z,16.46
2023-05-08T02:55:37.177Z,16.50
2023-05-08T02:58:17.783Z,16.48
2023-05-08T03:00:53.181Z,16.46
2023-05-08T03:03:28.193Z,16.51
2023-05-08T03:06:05.438Z,16.40
2023-05-08T03:08:38.097Z,16.47
2023-05-08T03:11:14.855Z,16.58
2023-05-08T03:13:48.352Z,16.60
2023-05-08T03:16:24.946Z,16.56
2023-05-08T03:18:59.716Z,16.49
2023-05-08T03:21:34.582Z,16.47
2023-05-08T03:24:08.585Z,16.40
2023-05-08T03:26:40.031Z,16.52
2023-05-08T03:29:11.237Z,16.60
2023-05-08T03:31:43.326Z,16.59
2023-05-08T03:34:16.453Z,16.56
2023-05-08T03:36:49.622Z,16.56
2023-05-08T03:39:20.083Z,16.55
2023-05-08T03:41:51.046Z,16.60
2023-05-08T03:44:22.792Z,16.71
2023-05-08T03:46:58.676Z,16.77
2023-05-08T03:49:30.615Z,16.63
2023-05-08T03:52:03.792Z,16.61
2023-05-08T03:54:34.027Z,16.61
2023-05-08T03:57:04.067Z,16.65
2023-05-08T03:59:45.277Z,16.66
2023-05-08T04:02:28.324Z,16.68
2023-05-08T04:05:09.264Z,16.64
2023-05-08T04:07:50.925Z,16.59
2023-05-08T04:10:31.300Z,16.48
2023-05-08T04:13:10.174Z,16.60
2023-05-08T04:15:54.666Z,16.50
2023-05-08T04:18:32.204Z,16.61
2023-05-08T04:21:11.616Z,16.59
2023-05-08T04:23:48.923Z,16.62
2023-05-08T04:26:21.072Z,16.61
2023-05-08T04:28:52.842Z,16.70
2023-05-08T04:31:23.128Z,16.66
2023-05-08T04:33:53.719Z,16.62
2023-05-08T04:36:23.960Z,16.62
2023-05-08T04:38:56.514Z,16.68
2023-05-08T04:41:26.952Z,16.57
2023-05-08T04:43:57.602Z,16.64
2023-05-08T04:46:27.681Z,16.73
2023-05-08T04:48:58.278Z,16.82
2023-05-08T04:51:28.298Z,16.82
2023-05-08T04:54:01.306Z,16.89
2023-05-08T04:56:32.306Z,16.93
2023-05-08T04:59:03.198Z,16.80
2023-05-08T05:01:33.294Z,16.87
2023-05-08T05:04:03.615Z,16.90
2023-05-08T05:06:33.928Z,16.93
2023-05-08T05:09:07.158Z,16.94
2023-05-08T05:11:37.188Z,16.83
2023-05-08T05:14:07.436Z,16.80
2023-05-08T05:16:38.304Z,16.82
2023-05-08T05:19:08.445Z,16.80
2023-05-08T05:21:39.940Z,16.74
2023-05-08T05:24:12.729Z,16.70
2023-05-08T05:26:42.824Z,16.69
2023-05-08T05:29:13.364Z,16.63
2023-05-08T05:31:43.433Z,16.62
2023-05-08T05:34:13.747Z,16.61
2023-05-08T05:36:44.202Z,16.62
2023-05-08T05:39:16.776Z,16.79
2023-05-08T05:41:46.866Z,16.85
2023-05-08T05:44:16.853Z,16.85
2023-05-08T05:46:46.901Z,16.79
2023-05-08T05:49:16.944Z,16.83
2023-05-08T05:51:47.109Z,16.83
2023-05-08T05:54:20.620Z,16.90
2023-05-08T05:56:50.686Z,16.88
2023-05-08T05:59:20.855Z,16.94
2023-05-08T06:01:50.910Z,16.96
2023-05-08T06:04:21.465Z,17.05
2023-05-08T06:06:51.499Z,16.95
2023-05-08T06:09:24.060Z,16.96
2023-05-08T06:11:54.962Z,16.91
2023-05-08T06:14:24.905Z,16.96
2023-05-08T06:16:54.946Z,16.99
2023-05-08T06:19:25.130Z,16.91
2023-05-08T06:21:55.557Z,16.91
2023-05-08T06:24:28.364Z,16.93
2023-05-08T06:26:58.302Z,16.83
2023-05-08T06:29:28.218Z,16.84
2023-05-08T06:31:58.540Z,16.93
2023-05-08T06:34:28.500Z,16.89
2023-05-08T06:36:58.432Z,16.89
2023-05-08T06:39:31.084Z,16.88
2023-05-08T06:42:01.166Z,16.93
2023-05-08T06:44:34.297Z,16.88
2023-05-08T06:47:04.612Z,17.01
2023-05-08T06:49:34.524Z,16.97
2023-05-08T06:52:04.533Z,17.06
2023-05-08T06:54:37.029Z,17.24
2023-05-08T06:57:07.856Z,17.36
2023-05-08T06:59:37.872Z,17.48
2023-05-08T07:02:10.023Z,17.45
2023-05-08T07:04:40.273Z,17.61
2023-05-08T07:07:11.677Z,17.68
2023-05-08T07:09:44.310Z,17.78
2023-05-08T07:12:16.769Z,17.63
2023-05-08T07:14:46.785Z,17.81
2023-05-08T07:17:16.807Z,17.79
2023-05-08T07:19:46.782Z,17.70
2023-05-08T07:22:16.790Z,17.75
2023-05-08T07:24:49.375Z,17.79
2023-05-08T07:27:20.169Z,17.88
2023-05-08T07:29:50.217Z,17.98
2023-05-08T07:32:20.437Z,18.04
2023-05-08T07:34:50.481Z,17.81
2023-05-08T07:37:20.481Z,17.78
2023-05-08T07:39:53.065Z,17.74
2023-05-08T07:42:23.103Z,17.76
2023-05-08T07:44:55.115Z,17.91
2023-05-08T07:47:25.697Z,17.94
2023-05-08T07:49:56.458Z,17.98
2023-05-08T07:52:26.655Z,17.97
2023-05-08T07:54:59.256Z,17.98
2023-05-08T07:57:29.244Z,18.00
2023-05-08T08:00:04.613Z,17.92
2023-05-08T08:02:44.003Z,17.91
2023-05-08T08:05:14.594Z,17.93
2023-05-08T08:07:44.920Z,17.89
2023-05-08T08:10:17.730Z,17.90
2023-05-08T08:12:48.509Z,17.87
2023-05-08T08:15:18.708Z,17.87
2023-05-08T08:17:49.094Z,17.73
2023-05-08T08:20:19.358Z,17.76
2023-05-08T08:22:49.398Z,17.82
2023-05-08T08:25:22.620Z,17.84
2023-05-08T08:27:52.600Z,17.82
2023-05-08T08:30:22.886Z,17.88
2023-05-08T08:32:53.012Z,17.97
2023-05-08T08:35:29.334Z,18.07
2023-05-08T08:37:59.717Z,18.08
2023-05-08T08:40:32.389Z,18.08
2023-05-08T08:43:02.517Z,18.13
2023-05-08T08:45:33.804Z,18.12
2023-05-08T08:48:05.331Z,18.23
2023-05-08T08:50:36.246Z,18.34
2023-05-08T08:53:13.307Z,18.40
2023-05-08T08:55:49.906Z,18.34
2023-05-08T08:58:26.913Z,18.46
2023-05-08T09:00:58.189Z,18.40
2023-05-08T09:03:28.617Z,18.17
2023-05-08T09:06:02.077Z,18.33
2023-05-08T09:08:32.677Z,18.16
2023-05-08T09:11:05.746Z,18.26
2023-05-08T09:13:35.970Z,18.44
2023-05-08T09:16:06.462Z,18.23
2023-05-08T09:18:36.427Z,17.86
2023-05-08T09:21:08.909Z,17.90
2023-05-08T09:23:38.982Z,17.65
2023-05-08T09:26:12.056Z,17.58
2023-05-08T09:28:42.017Z,17.63
2023-05-08T09:31:12.062Z,17.91
2023-05-08T09:33:47.878Z,17.93
2023-05-08T09:36:29.632Z,17.73
2023-05-08T09:38:59.611Z,17.78
2023-05-08T09:41:32.305Z,18.14
2023-05-08T09:44:07.379Z,18.14
2023-05-08T09:46:38.146Z,18.37
2023-05-08T09:49:08.180Z,18.32
2023-05-08T09:51:38.270Z,18.23
2023-05-08T09:54:20.866Z,17.78
2023-05-08T09:56:53.709Z,17.78
2023-05-08T09:59:29.456Z,17.67
2023-05-08T10:02:00.592Z,17.61
2023-05-08T10:04:36.948Z,17.68
2023-05-08T10:07:07.619Z,17.80
2023-05-08T10:09:49.850Z,17.89
2023-05-08T10:12:24.400Z,18.03
2023-05-08T10:14:55.224Z,18.11
2023-05-08T10:17:30.646Z,18.30
2023-05-08T10:20:04.015Z,18.37
2023-05-08T10:22:40.037Z,18.47
2023-05-08T10:25:20.318Z,18.46
2023-05-08T10:28:02.396Z,18.55
2023-05-08T10:30:34.893Z,18.79
2023-05-08T10:33:11.140Z,18.81
2023-05-08T10:35:41.781Z,18.72
2023-05-08T10:38:12.458Z,18.44
2023-05-08T10:40:42.840Z,18.38
2023-05-08T10:43:16.159Z,18.31
2023-05-08T10:45:47.393Z,18.38
2023-05-08T10:48:35.002Z,18.48
2023-05-08T10:51:13.059Z,18.73
2023-05-08T10:53:51.754Z,19.01
2023-05-08T10:56:27.768Z,19.13
2023-05-08T10:59:04.163Z,19.19
2023-05-08T11:01:34.385Z,19.49
2023-05-08T11:04:04.553Z,19.50
2023-05-08T11:06:53.365Z,19.29
2023-05-08T11:09:24.855Z,19.48
2023-05-08T11:12:11.376Z,19.50
2023-05-08T11:14:46.849Z,19.78
2023-05-08T11:17:25.891Z,19.99
2023-05-08T11:20:01.359Z,20.12
2023-05-08T11:22:33.344Z,19.95
2023-05-08T11:25:06.290Z,19.91
2023-05-08T11:27:41.697Z,19.86
2023-05-08T11:30:37.718Z,20.29
2023-05-08T11:33:37.433Z,20.38
2023-05-08T11:36:17.619Z,20.12
2023-05-08T11:39:12.806Z,20.20
2023-05-08T11:41:42.944Z,20.28
2023-05-08T11:44:21.871Z,20.32
2023-05-08T11:46:56.611Z,20.47
2023-05-08T11:49:30.216Z,20.22
2023-05-08T11:52:03.903Z,20.29
2023-05-08T11:54:34.393Z,20.33
2023-05-08T11:57:04.532Z,20.44
2023-05-08T11:59:39.305Z,20.53
2023-05-08T12:02:11.892Z,20.47
2023-05-08T12:04:48.797Z,20.26
2023-05-08T12:07:18.976Z,20.66
2023-05-08T12:09:49.505Z,20.83
2023-05-08T12:12:19.527Z,20.66
2023-05-08T12:14:52.957Z,21.20
2023-05-08T12:17:25.779Z,21.05
2023-05-08T12:20:04.257Z,20.96
2023-05-08T12:22:34.548Z,21.12
2023-05-08T12:25:06.760Z,21.32
2023-05-08T12:27:36.825Z,20.96
2023-05-08T12:30:10.903Z,20.98
2023-05-08T12:32:45.531Z,20.95
2023-05-08T12:35:16.822Z,21.00
2023-05-08T12:37:48.799Z,21.65
2023-05-08T12:40:31.601Z,21.37
2023-05-08T12:43:04.510Z,21.47
2023-05-08T12:45:37.336Z,22.07
2023-05-08T12:48:11.764Z,21.80
2023-05-08T12:50:43.831Z,21.91
2023-05-08T12:53:15.970Z,22.86
2023-05-08T12:55:54.135Z,24.05
2023-05-08T12:58:28.155Z,22.97
2023-05-08T13:01:13.166Z,22.79
2023-05-08T13:03:50.747Z,23.71
2023-05-08T13:06:26.134Z,23.57
2023-05-08T13:08:57.247Z,22.91
2023-05-08T13:11:34.959Z,23.68
2023-05-08T13:14:04.942Z,23.82
2023-05-08T13:16:45.165Z,23.21
2023-05-08T13:19:19.190Z,23.49
2023-05-08T13:21:49.685Z,22.99
2023-05-08T13:24:20.110Z,22.87
2023-05-08T13:26:50.040Z,22.43
2023-05-08T13:29:22.240Z,22.18
2023-05-08T13:31:52.343Z,22.20
2023-05-08T13:34:25.691Z,21.93
2023-05-08T13:36:55.955Z,21.84
2023-05-08T13:39:25.993Z,21.90
2023-05-08T13:41:55.922Z,21.73
2023-05-08T13:44:25.980Z,22.05
2023-05-08T13:46:56.187Z,21.96
2023-05-08T13:49:28.834Z,21.73
2023-05-08T13:51:58.847Z,21.73
2023-05-08T13:54:28.913Z,21.81
2023-05-08T13:56:59.273Z,21.76
2023-05-08T13:59:31.395Z,22.13
2023-05-08T14:02:01.353Z,21.77
2023-05-08T14:04:34.059Z,21.78
2023-05-08T14:07:04.082Z,21.68
2023-05-08T14:09:34.068Z,21.85
2023-05-08T14:12:05.086Z,21.71
2023-05-08T14:14:35.147Z,21.35
2023-05-08T14:17:05.249Z,21.08
2023-05-08T14:19:37.905Z,21.11
2023-05-08T14:22:07.950Z,21.26
2023-05-08T14:24:37.976Z,21.44
2023-05-08T14:27:07.922Z,21.56
2023-05-08T14:29:38.063Z,21.74
2023-05-08T14:32:09.473Z,21.53
2023-05-08T14:34:42.005Z,21.86
2023-05-08T14:37:13.196Z,21.73
2023-05-08T14:39:43.263Z,21.59
2023-05-08T14:42:22.864Z,21.66
2023-05-08T14:44:53.791Z,22.58
2023-05-08T14:47:23.780Z,22.48
2023-05-08T14:49:56.944Z,22.38
2023-05-08T14:52:26.938Z,22.80
2023-05-08T14:54:58.868Z,22.83
2023-05-08T14:57:28.990Z,22.69
2023-05-08T14:59:58.930Z,23.08
2023-05-08T15:02:29.076Z,24.03
2023-05-08T15:05:03.222Z,24.24
2023-05-08T15:07:41.390Z,23.04
2023-05-08T15:10:12.997Z,24.12
2023-05-08T15:12:43.059Z,23.45
2023-05-08T15:15:13.825Z,23.12
2023-05-08T15:17:44.105Z,27.09
2023-05-08T15:20:16.811Z,25.27
2023-05-08T15:22:46.856Z,25.12
2023-05-08T15:25:17.132Z,23.33
2023-05-08T15:27:52.614Z,22.88
2023-05-08T15:30:23.232Z,23.37
2023-05-08T15:32:53.463Z,23.02
2023-05-08T15:35:28.603Z,22.93
2023-05-08T15:37:58.615Z,22.83
2023-05-08T15:40:28.593Z,22.66
2023-05-08T15:42:59.074Z,22.40
2023-05-08T15:45:29.174Z,22.44
2023-05-08T15:47:59.366Z,21.97
2023-05-08T15:50:31.987Z,21.93
2023-05-08T15:53:01.962Z,21.93
2023-05-08T15:55:31.931Z,21.73
2023-05-08T15:58:02.070Z,21.50
2023-05-08T16:00:43.929Z,21.37
2023-05-08T16:03:14.614Z,21.14
2023-05-08T16:05:47.684Z,20.81
2023-05-08T16:08:17.722Z,20.94
2023-05-08T16:10:48.668Z,20.91
2023-05-08T16:13:19.187Z,20.69
2023-05-08T16:15:49.254Z,20.65
2023-05-08T16:18:19.287Z,20.78
2023-05-08T16:20:51.928Z,20.59
2023-05-08T16:23:21.912Z,20.43
2023-05-08T16:25:51.901Z,20.39
2023-05-08T16:28:22.056Z,20.41
2023-05-08T16:30:52.061Z,20.33
2023-05-08T16:33:22.046Z,20.21
2023-05-08T16:35:54.739Z,20.21
2023-05-08T16:38:24.760Z,20.26
2023-05-08T16:40:54.766Z,20.22
2023-05-08T16:43:24.802Z,20.29
2023-05-08T16:45:55.499Z,20.58
2023-05-08T16:48:28.126Z,20.89
2023-05-08T16:51:00.728Z,21.15
2023-05-08T16:53:32.720Z,22.42
2023-05-08T16:56:02.741Z,22.65
2023-05-08T16:58:33.072Z,22.08
2023-05-08T17:01:03.115Z,21.66
2023-05-08T17:03:33.272Z,21.19
2023-05-08T17:06:09.035Z,21.11
2023-05-08T17:08:39.111Z,20.74
2023-05-08T17:11:09.029Z,20.70
2023-05-08T17:13:39.003Z,20.86
2023-05-08T17:16:10.244Z,20.82
2023-05-08T17:18:40.323Z,20.43
2023-05-08T17:21:13.013Z,20.28
2023-05-08T17:23:43.079Z,20.27
2023-05-08T17:26:13.124Z,20.19
2023-05-08T17:28:43.112Z,20.28
2023-05-08T17:33:44.728Z,20.07
2023-05-08T17:36:17.320Z,19.86
2023-05-08T17:38:47.461Z,19.65
2023-05-08T17:41:17.576Z,19.77
2023-05-08T17:43:47.587Z,19.77
2023-05-08T17:46:17.638Z,19.74
2023-05-08T17:48:47.697Z,19.69
2023-05-08T17:51:20.582Z,19.59
2023-05-08T17:53:50.700Z,19.37
2023-05-08T17:56:23.282Z,19.42
2023-05-08T17:58:53.485Z,19.21
2023-05-08T18:01:24.900Z,19.03
2023-05-08T18:03:56.004Z,19.14
2023-05-08T18:06:28.626Z,18.99
2023-05-08T18:09:01.115Z,18.91
2023-05-08T18:11:31.162Z,18.96
2023-05-08T18:14:01.182Z,18.79
2023-05-08T18:16:31.219Z,18.77
2023-05-08T18:19:01.522Z,18.74
2023-05-08T18:21:34.044Z,18.83
2023-05-08T18:24:04.084Z,18.72
2023-05-08T18:26:34.086Z,18.68
2023-05-08T18:29:04.060Z,18.66
2023-05-08T18:31:34.076Z,18.67
2023-05-08T18:34:04.186Z,18.65
2023-05-08T18:36:36.725Z,18.53
2023-05-08T18:39:07.385Z,18.51
2023-05-08T18:41:37.394Z,18.44
2023-05-08T18:44:08.019Z,18.42
2023-05-08T18:46:38.234Z,18.38
2023-05-08T18:49:08.309Z,18.35
2023-05-08T18:51:40.935Z,18.35
2023-05-08T18:54:10.988Z,18.56
2023-05-08T18:56:40.983Z,18.53
2023-05-08T18:59:11.220Z,18.53
2023-05-08T19:01:41.252Z,18.44
2023-05-08T19:04:11.443Z,18.25
2023-05-08T19:06:44.125Z,18.30
2023-05-08T19:09:14.140Z,18.26
2023-05-08T19:11:44.188Z,18.27
2023-05-08T19:14:14.471Z,18.20
2023-05-08T19:16:44.478Z,18.13
2023-05-08T19:19:14.502Z,18.15
2023-05-08T19:21:47.148Z,18.17
2023-05-08T19:24:21.024Z,18.20
2023-05-08T19:26:51.143Z,18.20
2023-05-08T19:29:21.187Z,18.09
2023-05-08T19:31:51.410Z,18.13
2023-05-08T19:34:21.559Z,18.08
2023-05-08T19:36:54.270Z,18.14
2023-05-08T19:39:24.306Z,17.97
2023-05-08T19:41:54.375Z,18.01
2023-05-08T19:44:24.524Z,17.96
2023-05-08T19:46:54.542Z,17.98
2023-05-08T19:49:24.560Z,18.00
2023-05-08T19:51:57.237Z,17.95
2023-05-08T19:54:27.318Z,17.97
2023-05-08T19:56:57.417Z,17.99
2023-05-08T19:59:27.782Z,17.92
2023-05-08T20:01:57.837Z,17.92
2023-05-08T20:04:27.896Z,17.94
2023-05-08T20:07:00.538Z,17.82
2023-05-08T20:09:30.609Z,17.78
2023-05-08T20:12:00.832Z,17.81
2023-05-08T20:14:30.858Z,17.81
2023-05-08T20:17:00.906Z,17.73
2023-05-08T20:19:30.963Z,17.83
2023-05-08T20:22:03.878Z,17.68
2023-05-08T20:24:33.934Z,17.70
2023-05-08T20:27:04.077Z,17.76
2023-05-08T20:29:34.125Z,17.74
2023-05-08T20:32:04.174Z,17.76
2023-05-08T20:34:34.195Z,17.69
2023-05-08T20:37:06.809Z,17.64
2023-05-08T20:39:36.802Z,17.67
2023-05-08T20:42:06.969Z,17.70
2023-05-08T20:44:37.139Z,17.64
2023-05-08T20:47:07.448Z,17.65
2023-05-08T20:49:37.508Z,17.62
2023-05-08T20:52:10.282Z,17.60
2023-05-08T20:54:40.287Z,17.61
2023-05-08T20:57:10.405Z,17.59
2023-05-08T20:59:40.437Z,17.53
2023-05-08T21:02:10.565Z,17.47
2023-05-08T21:04:40.671Z,17.46
2023-05-08T21:07:13.410Z,17.50
2023-05-08T21:09:43.414Z,17.45
2023-05-08T21:12:13.533Z,17.35
2023-05-08T21:14:44.114Z,17.35
2023-05-08T21:17:14.238Z,17.35
2023-05-08T21:19:44.157Z,17.41
2023-05-08T21:22:17.547Z,17.38
2023-05-08T21:24:47.675Z,17.33
2023-05-08T21:27:17.806Z,17.27
2023-05-08T21:29:47.869Z,17.38
2023-05-08T21:32:17.997Z,17.29
2023-05-08T21:34:48.124Z,17.28
2023-05-08T21:37:20.938Z,17.27
2023-05-08T21:39:50.987Z,17.28
2023-05-08T21:42:21.006Z,17.31
2023-05-08T21:44:51.044Z,17.29
2023-05-08T21:47:22.504Z,17.33
2023-05-08T21:49:52.605Z,17.27
2023-05-08T21:52:26.041Z,17.23
2023-05-08T21:54:56.073Z,17.24
2023-05-08T21:57:26.059Z,17.18
2023-05-08T21:59:56.059Z,17.27
2023-05-08T22:02:26.243Z,17.24
2023-05-08T22:07:28.984Z,17.22
2023-05-08T22:09:58.940Z,17.28
2023-05-08T22:12:29.062Z,17.26
2023-05-08T22:14:59.050Z,17.25
2023-05-08T22:17:29.101Z,17.19
2023-05-08T22:19:59.123Z,17.18
2023-05-08T22:22:31.678Z,17.18
2023-05-08T22:25:01.755Z,17.15
2023-05-08T22:27:31.785Z,17.07
2023-05-08T22:30:02.569Z,17.08
2023-05-08T22:32:32.605Z,17.16
2023-05-08T22:35:02.940Z,17.13
2023-05-08T22:37:35.619Z,17.08
2023-05-08T22:40:06.168Z,17.10
2023-05-08T22:42:36.189Z,17.04
2023-05-08T22:45:06.458Z,16.99
2023-05-08T22:47:37.356Z,16.97
2023-05-08T22:50:09.383Z,16.95
2023-05-08T22:52:42.645Z,16.87
2023-05-08T22:55:12.887Z,16.91
2023-05-08T22:57:43.008Z,16.78
2023-05-08T23:00:16.386Z,16.85
2023-05-08T23:02:46.467Z,16.77
2023-05-08T23:05:16.597Z,16.81
2023-05-08T23:07:49.209Z,16.81
2023-05-08T23:10:19.350Z,16.79
2023-05-08T23:12:49.337Z,16.84
2023-05-08T23:15:28.241Z,16.82
2023-05-08T23:17:58.287Z,16.80
2023-05-08T23:20:28.312Z,16.67
2023-05-08T23:23:01.197Z,16.57
2023-05-08T23:25:31.181Z,16.74
2023-05-08T23:28:01.123Z,16.74
2023-05-08T23:30:31.181Z,16.68
2023-05-08T23:33:01.181Z,16.64
2023-05-08T23:35:31.472Z,16.62
2023-05-08T23:38:04.032Z,16.60
2023-05-08T23:40:33.934Z,16.55
2023-05-08T23:43:04.387Z,16.58
2023-05-08T23:45:34.407Z,16.46
2023-05-08T23:48:04.413Z,16.50
2023-05-08T23:50:34.360Z,16.55
2023-05-08T23:53:06.902Z,16.49
2023-05-08T23:55:38.474Z,16.54
2023-05-08T23:58:08.384Z,16.49
